Time;durP1;ratioP1;P1;durP2;ratioP2;P2;SDS_P1;SDS_P2;PMS_P1;PMS_P2;Temp;Humidity;BMP_temperature;BMP_pressure;BME280_temperature;BME280_humidity;BME280_pressure;Samples;Min_cycle;Max_cycle;Signal;HPM_P1;HPM_P2
2021/08/06 00:02:04;;;;;;;24.50;4.88;;;15.50;99.90;;;;;;5096408;28;20017;-70
2021/08/06 00:04:30;;;;;;;18.85;5.38;;;15.70;99.90;;;;;;5096810;28;20448;-70
2021/08/06 00:06:56;;;;;;;20.48;4.07;;;15.60;99.90;;;;;;5096654;28;20027;-69
2021/08/06 00:09:22;;;;;;;19.35;4.10;;;15.70;99.90;;;;;;5096763;28;20021;-70
2021/08/06 00:11:48;;;;;;;19.55;4.40;;;15.70;99.90;;;;;;5095219;28;20031;-70
2021/08/06 00:14:14;;;;;;;18.63;4.75;;;15.60;99.90;;;;;;5095524;28;20462;-70
2021/08/06 00:16:40;;;;;;;17.45;5.65;;;15.60;99.90;;;;;;5096267;28;20710;-69
2021/08/06 00:19:06;;;;;;;15.32;3.47;;;15.70;99.90;;;;;;5095133;28;20035;-70
2021/08/06 00:21:32;;;;;;;14.80;3.60;;;15.70;99.90;;;;;;5096347;28;20024;-70
2021/08/06 00:23:58;;;;;;;8.55;3.53;;;15.70;99.90;;;;;;5096455;28;20028;-70
2021/08/06 00:26:24;;;;;;;9.95;3.80;;;15.60;99.90;;;;;;5096265;28;20024;-70
2021/08/06 00:28:49;;;;;;;9.02;2.65;;;15.30;99.90;;;;;;5098645;28;20148;-70
2021/08/06 00:31:15;;;;;;;8.18;2.67;;;15.20;99.90;;;;;;5100282;28;20565;-70
2021/08/06 00:33:41;;;;;;;7.75;2.78;;;15.60;99.90;;;;;;5090950;28;20028;-70
2021/08/06 00:36:07;;;;;;;6.82;2.83;;;15.30;99.90;;;;;;5100185;28;20036;-70
2021/08/06 00:38:33;;;;;;;10.60;2.78;;;15.50;99.90;;;;;;5100307;28;20020;-70
2021/08/06 00:40:59;;;;;;;8.48;3.35;;;15.30;99.90;;;;;;5100148;28;20066;-70
2021/08/06 00:43:25;;;;;;;6.18;2.45;;;15.20;99.90;;;;;;5100128;28;20024;-70
2021/08/06 00:45:51;;;;;;;7.97;3.03;;;15.30;99.90;;;;;;5100121;28;20032;-70
2021/08/06 00:48:17;;;;;;;11.93;3.58;;;15.40;99.90;;;;;;5099906;28;20042;-70
2021/08/06 00:50:43;;;;;;;8.63;3.50;;;15.20;99.90;;;;;;5100127;28;20036;-70
2021/08/06 00:53:09;;;;;;;7.05;3.15;;;15.20;99.90;;;;;;5099959;28;20096;-70
2021/08/06 00:55:35;;;;;;;7.65;3.42;;;15.40;99.90;;;;;;5099760;28;20028;-70
2021/08/06 00:58:01;;;;;;;9.07;3.25;;;15.30;99.90;;;;;;5099924;28;20048;-69
2021/08/06 01:00:27;;;;;;;10.55;3.40;;;15.20;99.90;;;;;;5099785;28;20017;-70
2021/08/06 01:02:58;;;;;;;10.70;3.13;;;15.20;99.90;;;;;;5099659;28;20065;-70
2021/08/06 01:05:29;;;;;;;8.10;3.58;;;15.20;99.90;;;;;;5099726;28;20035;-70
2021/08/06 01:07:58;;;;;;;7.90;2.75;;;15.00;99.90;;;;;;5098522;28;20082;-70
2021/08/06 01:10:32;;;;;;;4.95;3.38;;;15.10;99.90;;;;;;5099546;28;20133;-70
2021/08/06 01:13:00;;;;;;;10.98;3.15;;;15.20;99.90;;;;;;5099548;28;20024;-70
2021/08/06 01:15:27;;;;;;;3.92;2.53;;;15.00;99.90;;;;;;5099626;28;20161;-70
2021/08/06 01:17:56;;;;;;;4.85;3.28;;;15.20;99.90;;;;;;5099289;28;20084;-70
2021/08/06 01:20:46;;;;;;;10.63;2.75;;;15.20;99.90;;;;;;5099574;28;20028;-70
2021/08/06 01:23:35;;;;;;;9.55;4.13;;;15.10;99.90;;;;;;5099448;28;20016;-70
2021/08/06 01:26:13;;;;;;;6.72;3.25;;;15.10;99.90;;;;;;5098213;28;20039;-70
2021/08/06 01:28:42;;;;;;;9.38;2.53;;;14.90;99.90;;;;;;5099449;28;20021;-70
2021/08/06 01:31:09;;;;;;;4.93;3.25;;;15.10;99.90;;;;;;5099203;28;20047;-70
2021/08/06 01:33:36;;;;;;;6.25;3.60;;;15.00;99.90;;;;;;5098734;28;20028;-70
2021/08/06 01:36:03;;;;;;;7.05;4.03;;;14.80;99.90;;;;;;5098954;28;20028;-70
2021/08/06 01:38:30;;;;;;;11.05;3.53;;;14.80;99.90;;;;;;5099052;28;20392;-70
2021/08/06 01:41:17;;;;;;;5.97;2.95;;;15.10;99.90;;;;;;5098382;28;20052;-70
2021/08/06 01:44:05;;;;;;;10.43;3.33;;;14.70;99.90;;;;;;5099269;28;20058;-70
2021/08/06 01:46:49;;;;;;;9.45;4.30;;;15.00;99.90;;;;;;5098832;28;20060;-70
2021/08/06 01:49:27;;;;;;;9.95;3.45;;;15.00;99.90;;;;;;5099078;28;20020;-70
2021/08/06 01:52:01;;;;;;;11.00;3.25;;;15.00;99.90;;;;;;5098983;28;20032;-70
2021/08/06 01:54:29;;;;;;;11.20;3.13;;;15.20;99.90;;;;;;5098832;28;20107;-70
2021/08/06 01:56:56;;;;;;;10.93;3.15;;;15.00;99.90;;;;;;5097356;28;20475;-70
2021/08/06 01:59:22;;;;;;;7.18;2.90;;;15.10;99.90;;;;;;5098886;28;20020;-70
2021/08/06 02:01:48;;;;;;;11.55;3.30;;;15.10;99.90;;;;;;5098343;28;20024;-70
2021/08/06 02:04:14;;;;;;;11.05;3.50;;;15.20;99.90;;;;;;5098934;28;20146;-70
2021/08/06 02:06:43;;;;;;;13.23;2.97;;;15.00;99.90;;;;;;5098579;28;20055;-70
2021/08/06 02:09:18;;;;;;;5.10;2.90;;;15.10;99.90;;;;;;5098525;28;20036;-70
2021/08/06 02:11:45;;;;;;;12.05;4.13;;;14.90;99.90;;;;;;5098540;28;20020;-70
2021/08/06 02:14:11;;;;;;;12.00;4.20;;;15.20;99.90;;;;;;5098650;28;20035;-70
2021/08/06 02:16:40;;;;;;;9.40;3.78;;;14.80;99.90;;;;;;5098012;28;20392;-70
2021/08/06 02:19:06;;;;;;;11.60;4.22;;;15.00;99.90;;;;;;5098314;28;20024;-70
2021/08/06 02:21:34;;;;;;;14.30;4.18;;;14.90;99.90;;;;;;5098230;28;20031;-70
2021/08/06 02:24:06;;;;;;;11.23;3.80;;;15.30;99.90;;;;;;5098284;28;20027;-70
2021/08/06 02:26:34;;;;;;;6.50;2.83;;;15.00;99.90;;;;;;5098120;28;20016;-70
2021/08/06 02:29:05;;;;;;;16.05;3.97;;;15.10;99.90;;;;;;5098178;28;20476;-70
2021/08/06 02:31:32;;;;;;;11.98;3.13;;;15.10;99.90;;;;;;5097603;28;20476;-70
2021/08/06 02:33:58;;;;;;;7.13;2.75;;;15.30;99.90;;;;;;5097929;28;20047;-70
2021/08/06 02:36:24;;;;;;;7.45;2.90;;;15.10;99.90;;;;;;5098170;28;20024;-70
2021/08/06 02:38:50;;;;;;;7.30;3.20;;;14.90;99.90;;;;;;5097853;28;20020;-70
2021/08/06 02:41:19;;;;;;;13.55;3.13;;;15.10;99.90;;;;;;5098161;28;20476;-70
2021/08/06 02:43:44;;;;;;;9.85;2.88;;;15.10;99.90;;;;;;5097908;28;20051;-71
2021/08/06 02:46:10;;;;;;;10.18;3.22;;;15.10;99.90;;;;;;5098112;28;20480;-70
2021/08/06 02:48:36;;;;;;;11.27;2.88;;;15.10;99.90;;;;;;5097551;28;20020;-70
2021/08/06 02:51:02;;;;;;;10.18;3.45;;;15.10;99.90;;;;;;5097468;28;20028;-70
2021/08/06 02:53:28;;;;;;;11.63;3.40;;;15.40;99.90;;;;;;5096952;28;20080;-70
2021/08/06 02:55:53;;;;;;;9.20;3.45;;;15.10;99.90;;;;;;5097785;28;20032;-70
2021/08/06 02:58:20;;;;;;;10.55;3.65;;;15.20;99.90;;;;;;5097487;28;20024;-70
2021/08/06 03:00:48;;;;;;;11.88;3.72;;;15.40;99.90;;;;;;5097832;28;20046;-70
2021/08/06 03:03:14;;;;;;;10.00;4.93;;;15.40;99.90;;;;;;5097329;28;20566;-70
2021/08/06 03:05:40;;;;;;;14.27;4.20;;;15.40;99.90;;;;;;5097604;28;20085;-70
2021/08/06 03:08:06;;;;;;;16.00;4.75;;;15.50;99.90;;;;;;5097302;28;20024;-70
2021/08/06 03:10:34;;;;;;;13.43;4.32;;;15.10;99.90;;;;;;5097539;28;20081;-70
2021/08/06 03:13:00;;;;;;;9.15;3.63;;;15.20;99.90;;;;;;5095913;28;20028;-70
2021/08/06 03:15:26;;;;;;;11.13;4.35;;;15.40;99.90;;;;;;5097462;28;20042;-70
2021/08/06 03:17:52;;;;;;;11.93;4.38;;;15.40;99.90;;;;;;5097062;28;20422;-70
2021/08/06 03:20:22;;;;;;;16.45;4.28;;;15.30;99.90;;;;;;5097326;28;20028;-70
2021/08/06 03:22:48;;;;;;;8.38;3.15;;;15.50;99.90;;;;;;5097032;28;20024;-70
2021/08/06 03:25:14;;;;;;;16.52;4.10;;;15.30;99.90;;;;;;5097462;28;20021;-70
2021/08/06 03:27:40;;;;;;;9.40;3.42;;;15.40;99.90;;;;;;5096986;28;20020;-70
2021/08/06 03:30:10;;;;;;;10.10;4.32;;;15.40;99.90;;;;;;5097276;28;20032;-71
2021/08/06 03:32:36;;;;;;;12.05;4.28;;;15.30;99.90;;;;;;5096576;28;20431;-70
2021/08/06 03:35:02;;;;;;;15.73;4.82;;;15.60;99.90;;;;;;5095493;28;20040;-70
2021/08/06 03:37:28;;;;;;;13.30;3.75;;;15.40;99.90;;;;;;5095535;28;20027;-70
2021/08/06 03:39:54;;;;;;;16.55;3.92;;;15.50;99.90;;;;;;5095645;28;20084;-70
2021/08/06 03:42:20;;;;;;;14.00;4.75;;;15.50;99.90;;;;;;5095434;28;20420;-70
2021/08/06 03:44:46;;;;;;;12.27;4.35;;;15.40;99.90;;;;;;5096834;28;20430;-70
2021/08/06 03:47:12;;;;;;;11.38;4.07;;;15.50;99.90;;;;;;5096797;28;20077;-70
2021/08/06 03:49:37;;;;;;;9.30;3.58;;;15.40;99.90;;;;;;5097040;28;20020;-70
2021/08/06 03:52:04;;;;;;;14.55;4.60;;;15.50;99.90;;;;;;5096708;28;20032;-70
2021/08/06 03:54:29;;;;;;;10.57;3.75;;;15.30;99.90;;;;;;5096885;28;20081;-70
2021/08/06 03:56:55;;;;;;;7.80;3.33;;;15.40;99.90;;;;;;5095224;28;20032;-69
2021/08/06 03:59:21;;;;;;;20.55;3.95;;;15.60;99.90;;;;;;5096984;28;20039;-69
2021/08/06 04:01:47;;;;;;;16.85;4.13;;;15.40;99.90;;;;;;5096328;28;20035;-70
2021/08/06 04:04:13;;;;;;;12.25;3.30;;;15.60;99.90;;;;;;5099369;28;20056;-69
2021/08/06 04:06:39;;;;;;;11.73;3.30;;;15.30;99.90;;;;;;5100138;28;20562;-69
2021/08/06 04:09:05;;;;;;;11.43;3.42;;;15.60;99.90;;;;;;5100082;28;20466;-69
2021/08/06 04:11:31;;;;;;;16.52;3.38;;;15.50;99.90;;;;;;5100202;28;20020;-69
2021/08/06 04:13:57;;;;;;;8.45;2.63;;;15.50;99.90;;;;;;5099586;28;20024;-69
2021/08/06 04:16:23;;;;;;;8.05;2.95;;;15.40;99.90;;;;;;5100342;28;20018;-69
2021/08/06 04:18:50;;;;;;;13.98;3.25;;;15.60;99.90;;;;;;5100801;28;20111;-69
2021/08/06 04:21:17;;;;;;;10.00;2.95;;;15.60;99.90;;;;;;5100504;28;20027;-69
2021/08/06 04:23:43;;;;;;;8.65;2.55;;;15.50;99.90;;;;;;5100921;28;20418;-69
2021/08/06 04:26:09;;;;;;;12.57;3.13;;;15.50;99.90;;;;;;5100461;28;20024;-69
2021/08/06 04:28:35;;;;;;;8.63;2.97;;;15.50;99.90;;;;;;5100726;28;20028;-69
2021/08/06 04:31:04;;;;;;;5.40;2.33;;;15.60;99.90;;;;;;5100390;28;20495;-69
2021/08/06 04:33:30;;;;;;;6.32;2.75;;;15.90;99.90;;;;;;5098645;28;20035;-70
2021/08/06 04:35:57;;;;;;;7.85;3.30;;;15.30;99.90;;;;;;5100172;28;20043;-68
2021/08/06 04:38:23;;;;;;;10.68;2.75;;;15.70;99.90;;;;;;5100377;28;20479;-68
2021/08/06 04:40:49;;;;;;;15.82;3.80;;;15.60;99.90;;;;;;5100125;28;20111;-68
2021/08/06 04:43:15;;;;;;;14.23;3.60;;;15.50;99.90;;;;;;5100572;28;20073;-68
2021/08/06 04:45:41;;;;;;;12.95;3.47;;;15.40;99.90;;;;;;5100216;28;20059;-68
2021/08/06 04:48:07;;;;;;;9.57;3.10;;;15.60;99.90;;;;;;5100105;28;20024;-68
2021/08/06 04:50:33;;;;;;;9.98;3.13;;;15.50;99.90;;;;;;5099814;28;20024;-68
2021/08/06 04:53:00;;;;;;;10.93;3.75;;;15.50;99.90;;;;;;5100209;28;20407;-68
2021/08/06 04:55:27;;;;;;;14.70;3.38;;;15.60;99.90;;;;;;5099663;28;20500;-68
2021/08/06 04:57:53;;;;;;;11.45;2.90;;;15.70;99.90;;;;;;5100126;28;20024;-68
2021/08/06 05:00:19;;;;;;;11.43;3.20;;;15.50;99.90;;;;;;5099863;28;20514;-68
2021/08/06 05:02:46;;;;;;;11.27;3.30;;;15.30;99.90;;;;;;5099748;28;20476;-68
2021/08/06 05:05:12;;;;;;;13.32;4.05;;;15.30;99.90;;;;;;5099984;28;20035;-69
2021/08/06 05:07:39;;;;;;;7.53;3.22;;;15.60;99.90;;;;;;5099908;28;20028;-68
2021/08/06 05:10:06;;;;;;;12.50;2.97;;;15.60;99.90;;;;;;5099598;28;20032;-68
2021/08/06 05:12:32;;;;;;;9.60;3.28;;;15.60;99.90;;;;;;5099717;28;20423;-68
2021/08/06 05:14:58;;;;;;;13.70;3.60;;;15.40;99.90;;;;;;5098385;28;20150;-68
2021/08/06 05:17:24;;;;;;;7.43;2.90;;;15.50;99.90;;;;;;5099344;28;20024;-69
2021/08/06 05:19:50;;;;;;;9.95;3.03;;;15.60;99.90;;;;;;5099415;28;20032;-68
2021/08/06 05:22:16;;;;;;;15.48;4.00;;;15.60;99.90;;;;;;5099570;28;20103;-69
2021/08/06 05:24:42;;;;;;;9.98;2.70;;;15.60;99.90;;;;;;5099424;28;20020;-69
2021/08/06 05:27:08;;;;;;;9.05;3.03;;;15.70;99.90;;;;;;5099585;28;20021;-69
2021/08/06 05:29:34;;;;;;;15.88;3.42;;;15.60;99.90;;;;;;5099248;28;20028;-69
2021/08/06 05:32:00;;;;;;;8.80;2.90;;;15.70;99.90;;;;;;5098954;28;20028;-69
2021/08/06 05:34:26;;;;;;;15.23;3.50;;;15.70;99.90;;;;;;5099156;28;20051;-68
2021/08/06 05:36:51;;;;;;;11.30;3.20;;;15.90;99.90;;;;;;5099202;28;20400;-69
2021/08/06 05:39:17;;;;;;;13.05;3.47;;;15.80;99.90;;;;;;5099055;28;20016;-69
2021/08/06 05:41:43;;;;;;;14.63;3.03;;;15.60;99.90;;;;;;5099290;28;20426;-68
2021/08/06 05:44:09;;;;;;;7.65;2.78;;;15.70;99.90;;;;;;5099168;28;20081;-68
2021/08/06 05:46:35;;;;;;;10.90;4.05;;;15.70;99.90;;;;;;5097574;28;20028;-68
2021/08/06 05:49:01;;;;;;;11.05;2.60;;;16.00;99.90;;;;;;5098929;28;20020;-68
2021/08/06 05:51:27;;;;;;;10.63;2.65;;;15.70;99.90;;;;;;5099020;28;20032;-68
2021/08/06 05:53:53;;;;;;;14.48;2.90;;;15.70;99.90;;;;;;5098667;28;20495;-69
2021/08/06 05:56:19;;;;;;;11.32;3.78;;;16.00;99.90;;;;;;5098896;28;20051;-68
2021/08/06 05:58:44;;;;;;;12.48;3.60;;;15.70;99.90;;;;;;5098909;28;20028;-69
2021/08/06 06:01:10;;;;;;;9.65;3.05;;;16.00;99.90;;;;;;5098888;28;20066;-68
2021/08/06 06:03:36;;;;;;;11.30;3.35;;;16.00;99.90;;;;;;5097308;28;20047;-68
2021/08/06 06:06:02;;;;;;;9.43;3.50;;;16.30;99.90;;;;;;5098850;28;20031;-69
2021/08/06 06:08:28;;;;;;;12.77;3.40;;;16.10;99.90;;;;;;5098396;28;20168;-68
2021/08/06 06:10:54;;;;;;;7.82;3.28;;;16.20;99.90;;;;;;5098771;28;20095;-68
2021/08/06 06:13:20;;;;;;;10.85;4.78;;;16.10;99.90;;;;;;5098405;28;20036;-68
2021/08/06 06:15:45;;;;;;;6.07;3.08;;;16.10;99.90;;;;;;5098484;28;20044;-68
2021/08/06 06:18:11;;;;;;;10.25;4.22;;;16.10;99.90;;;;;;5096926;28;20021;-68
2021/08/06 06:20:37;;;;;;;7.82;3.60;;;16.10;99.90;;;;;;5098504;28;20383;-68
2021/08/06 06:23:03;;;;;;;8.48;3.15;;;16.00;99.90;;;;;;5098250;28;20069;-68
2021/08/06 06:25:29;;;;;;;9.05;3.08;;;16.10;99.90;;;;;;5098246;28;20024;-68
2021/08/06 06:27:58;;;;;;;6.70;2.58;;;15.90;99.90;;;;;;5098068;28;20093;-69
2021/08/06 06:30:26;;;;;;;7.18;2.80;;;15.90;99.90;;;;;;5098322;28;20036;-68
2021/08/06 06:32:53;;;;;;;7.75;2.75;;;16.10;99.90;;;;;;5097622;28;20024;-68
2021/08/06 06:35:20;;;;;;;10.07;3.40;;;16.20;99.90;;;;;;5096468;28;20047;-68
2021/08/06 06:37:46;;;;;;;7.50;2.97;;;16.30;99.90;;;;;;5097968;28;20434;-69
2021/08/06 06:40:13;;;;;;;11.20;2.92;;;16.30;99.90;;;;;;5098116;28;20052;-69
2021/08/06 06:42:39;;;;;;;3.83;2.08;;;16.60;99.90;;;;;;5097884;28;20031;-69
2021/08/06 06:45:06;;;;;;;5.20;2.15;;;16.40;99.90;;;;;;5097821;28;20028;-68
2021/08/06 06:47:43;;;;;;;9.73;3.10;;;16.70;99.90;;;;;;5096173;28;20028;-68
2021/08/06 06:50:13;;;;;;;23.58;3.38;;;16.70;99.90;;;;;;5097835;28;20024;-68
2021/08/06 06:52:40;;;;;;;16.13;3.95;;;17.00;99.90;;;;;;5097867;28;20107;-69
2021/08/06 06:55:07;;;;;;;19.58;4.60;;;16.80;99.90;;;;;;5097595;28;20108;-68
2021/08/06 06:57:42;;;;;;;15.48;3.15;;;16.80;99.90;;;;;;5097927;28;20027;-68
2021/08/06 07:00:08;;;;;;;11.50;2.95;;;16.80;99.90;;;;;;5097499;28;20081;-69
2021/08/06 07:02:34;;;;;;;8.50;3.33;;;;;;;;;;5097526;28;20388;-69
2021/08/06 07:05:00;;;;;;;11.93;2.92;;;16.10;99.90;;;;;;5097235;28;20387;-69
2021/08/06 07:07:26;;;;;;;5.40;3.22;;;17.30;99.90;;;;;;5097627;28;20020;-68
2021/08/06 07:09:52;;;;;;;7.15;2.88;;;17.70;99.90;;;;;;5097392;28;20031;-69
2021/08/06 07:12:18;;;;;;;8.95;2.58;;;17.80;99.90;;;;;;5096065;28;20098;-68
2021/08/06 07:14:44;;;;;;;8.93;2.38;;;18.00;99.90;;;;;;5097420;28;20361;-66
2021/08/06 07:17:09;;;;;;;6.68;2.63;;;17.80;99.90;;;;;;5097116;28;20080;-67
2021/08/06 07:19:35;;;;;;;5.40;2.78;;;17.80;99.90;;;;;;5096984;28;20024;-68
2021/08/06 07:22:01;;;;;;;12.38;2.25;;;17.90;99.90;;;;;;5097559;28;20097;-69
2021/08/06 07:24:28;;;;;;;9.60;2.25;;;17.80;99.90;;;;;;5097355;28;20090;-69
2021/08/06 07:26:54;;;;;;;3.22;1.85;;;17.60;99.90;;;;;;5097436;28;20028;-69
2021/08/06 07:29:20;;;;;;;3.60;1.65;;;17.40;99.90;;;;;;5097360;28;20034;-69
2021/08/06 07:31:46;;;;;;;2.83;1.92;;;17.40;99.90;;;;;;5097140;28;20450;-69
2021/08/06 07:34:12;;;;;;;3.97;1.75;;;17.50;99.90;;;;;;5097261;28;20123;-63
2021/08/06 07:36:39;;;;;;;3.08;1.67;;;17.80;99.90;;;;;;5092685;28;20028;-59
2021/08/06 07:39:05;;;;;;;3.30;2.17;;;17.90;99.90;;;;;;5096005;28;20027;-59
2021/08/06 07:41:32;;;;;;;6.63;2.05;;;18.30;99.90;;;;;;5096490;28;20030;-60
2021/08/06 07:43:58;;;;;;;4.43;1.83;;;18.40;99.90;;;;;;5105654;28;20016;-59
2021/08/06 07:46:24;;;;;;;4.75;1.80;;;18.40;99.90;;;;;;5096552;28;20035;-59
2021/08/06 07:48:51;;;;;;;2.30;1.42;;;18.30;99.90;;;;;;5096798;28;20061;-59
2021/08/06 07:51:17;;;;;;;5.55;2.00;;;18.10;99.90;;;;;;5096600;28;20028;-59
2021/08/06 07:53:43;;;;;;;4.45;2.13;;;17.90;99.90;;;;;;5096538;28;20031;-59
2021/08/06 07:56:09;;;;;;;3.80;2.30;;;17.80;99.90;;;;;;5099130;28;20476;-59
2021/08/06 07:58:34;;;;;;;5.53;2.55;;;17.90;99.90;;;;;;5096435;28;20343;-59
2021/08/06 08:01:00;;;;;;;2.53;1.88;;;18.10;99.90;;;;;;5096015;28;20052;-60
2021/08/06 08:03:26;;;;;;;4.65;1.75;;;18.30;99.90;;;;;;5096420;28;20073;-59
2021/08/06 08:05:52;;;;;;;5.90;1.83;;;18.30;99.90;;;;;;5096740;28;20054;-59
2021/08/06 08:08:18;;;;;;;1.98;1.67;;;;;;;;;;5095915;28;20024;-59
2021/08/06 08:10:44;;;;;;;3.38;1.92;;;19.10;99.90;;;;;;5096867;28;20032;-59
2021/08/06 08:13:10;;;;;;;3.38;1.30;;;19.40;99.90;;;;;;5096681;28;20031;-59
2021/08/06 08:15:38;;;;;;;5.03;1.50;;;19.80;99.90;;;;;;5096152;28;20541;-59
2021/08/06 08:18:04;;;;;;;1.40;1.05;;;19.80;99.90;;;;;;5095000;28;20020;-59
2021/08/06 08:20:30;;;;;;;3.97;1.02;;;20.30;99.90;;;;;;5096467;28;20024;-59
2021/08/06 08:22:56;;;;;;;4.38;1.00;;;20.80;99.90;;;;;;5094667;28;20396;-59
2021/08/06 08:25:22;;;;;;;2.30;1.30;;;21.50;99.90;;;;;;5096391;28;20024;-59
2021/08/06 08:27:47;;;;;;;1.35;0.90;;;21.90;99.90;;;;;;5096456;28;20016;-59
2021/08/06 08:30:13;;;;;;;1.75;0.85;;;22.10;99.90;;;;;;5096893;28;20034;-59
2021/08/06 08:32:39;;;;;;;1.88;0.63;;;22.30;99.90;;;;;;5095983;28;20491;-59
2021/08/06 08:35:06;;;;;;;2.90;1.05;;;22.10;99.90;;;;;;5096212;28;20512;-59
2021/08/06 08:37:32;;;;;;;2.72;0.95;;;22.30;99.90;;;;;;5096299;28;20147;-59
2021/08/06 08:39:58;;;;;;;1.65;0.60;;;23.00;99.90;;;;;;5096359;28;20127;-59
2021/08/06 08:42:24;;;;;;;0.50;0.50;;;24.00;99.90;;;;;;5095915;28;20020;-60
2021/08/06 08:44:50;;;;;;;1.85;0.60;;;24.50;99.90;;;;;;5096348;28;20839;-59
2021/08/06 08:47:22;;;;;;;0.80;0.80;;;24.50;99.90;;;;;;5095850;28;20051;-59
2021/08/06 08:49:51;;;;;;;2.38;0.82;;;24.50;99.90;;;;;;5098271;28;20028;-60
2021/08/06 08:52:17;;;;;;;3.80;0.60;;;24.70;99.90;;;;;;5100199;28;20012;-59
2021/08/06 08:54:43;;;;;;;5.13;0.60;;;24.60;99.90;;;;;;5100156;28;20353;-59
2021/08/06 08:57:09;;;;;;;4.22;0.90;;;24.70;99.90;;;;;;5099827;28;20092;-59
2021/08/06 08:59:35;;;;;;;1.50;0.60;;;23.90;99.90;;;;;;5100047;28;20054;-60
2021/08/06 09:02:01;;;;;;;3.17;0.77;;;25.30;99.90;;;;;;5099633;28;20091;-60
2021/08/06 09:04:29;;;;;;;1.25;0.50;;;26.00;99.90;;;;;;5099906;28;20495;-59
2021/08/06 09:06:56;;;;;;;4.82;0.80;;;26.60;99.90;;;;;;5099718;28;20020;-59
2021/08/06 09:09:24;;;;;;;1.15;0.57;;;26.70;99.90;;;;;;5099801;28;20111;-60
2021/08/06 09:12:02;;;;;;;4.15;0.80;;;26.10;99.90;;;;;;5099511;28;20024;-59
2021/08/06 09:14:30;;;;;;;5.43;1.27;;;23.90;99.90;;;;;;5099763;28;20031;-60
2021/08/06 09:16:59;;;;;;;3.70;1.10;;;23.90;99.90;;;;;;5099477;28;20024;-59
2021/08/06 09:19:26;;;;;;;2.92;0.80;;;22.90;99.90;;;;;;5099553;28;20020;-60
2021/08/06 09:21:52;;;;;;;2.88;1.35;;;21.80;99.90;;;;;;5099548;28;20502;-59
2021/08/06 09:24:18;;;;;;;2.08;1.02;;;20.90;99.90;;;;;;5099453;28;20024;-60
2021/08/06 09:26:45;;;;;;;2.65;1.30;;;20.30;99.90;;;;;;5099556;28;20031;-59
2021/08/06 09:29:21;;;;;;;1.83;1.10;;;20.10;99.90;;;;;;5099567;28;20087;-59
2021/08/06 09:31:52;;;;;;;;;;;20.10;99.90;;;;;;5099405;28;20023;-59
2021/08/06 09:34:25;;;;;;;3.63;1.63;;;20.10;99.90;;;;;;5099105;28;19916;-59
2021/08/06 09:37:06;;;;;;;1.67;1.00;;;20.40;99.90;;;;;;5099491;28;20028;-59
2021/08/06 09:39:36;;;;;;;3.20;1.30;;;20.70;99.90;;;;;;5099115;28;20043;-59
2021/08/06 09:42:04;;;;;;;4.03;1.30;;;21.10;99.90;;;;;;5099246;28;20050;-59
2021/08/06 09:44:31;;;;;;;1.90;0.88;;;21.20;99.90;;;;;;5098986;28;20016;-59
2021/08/06 09:47:14;;;;;;;3.67;1.52;;;21.50;99.90;;;;;;5099047;28;20024;-60
2021/08/06 09:49:44;;;;;;;2.70;1.10;;;21.80;99.90;;;;;;5099315;28;20031;-60
2021/08/06 09:52:10;;;;;;;5.40;1.55;;;22.40;99.90;;;;;;5099164;28;20391;-60
2021/08/06 09:54:36;;;;;;;7.80;1.98;;;23.60;99.90;;;;;;5098964;28;20016;-60
2021/08/06 09:57:20;;;;;;;1.52;0.80;;;24.00;99.90;;;;;;5098742;28;20025;-60
2021/08/06 09:59:55;;;;;;;2.08;1.13;;;24.00;99.90;;;;;;5098852;28;20024;-60
2021/08/06 10:02:23;;;;;;;3.47;1.33;;;23.70;99.90;;;;;;5098072;28;20028;-60
2021/08/06 10:05:01;;;;;;;3.70;1.65;;;23.50;99.90;;;;;;5098751;28;20012;-60
2021/08/06 10:07:29;;;;;;;2.90;1.23;;;23.40;99.90;;;;;;5098667;28;20032;-60
2021/08/06 10:09:55;;;;;;;3.30;1.38;;;23.70;99.90;;;;;;5098606;28;20059;-60
2021/08/06 10:12:22;;;;;;;4.00;0.82;;;23.90;99.90;;;;;;5098622;28;20024;-61
2021/08/06 10:14:48;;;;;;;3.88;1.45;;;23.60;99.90;;;;;;5098460;28;20023;-60
2021/08/06 10:17:14;;;;;;;4.95;1.45;;;23.60;99.90;;;;;;5098560;28;20921;-61
2021/08/06 10:19:41;;;;;;;4.43;1.30;;;23.90;99.90;;;;;;5098570;28;20035;-61
2021/08/06 10:22:07;;;;;;;4.18;1.40;;;23.50;99.90;;;;;;5098254;28;20024;-60
2021/08/06 10:24:36;;;;;;;5.88;1.45;;;22.80;99.90;;;;;;5098084;28;20073;-60
2021/08/06 10:27:03;;;;;;;7.07;1.63;;;22.30;99.90;;;;;;5098315;28;20024;-60
2021/08/06 10:29:29;;;;;;;2.13;1.75;;;21.70;99.90;;;;;;5098111;28;20522;-60
2021/08/06 10:32:14;;;;;;;3.80;1.17;;;;;;;;;;5097640;28;20016;-60
2021/08/06 10:35:02;;;;;;;2.60;1.08;;;21.20;99.90;;;;;;5098031;28;20052;-60
2021/08/06 10:37:56;;;;;;;4.97;1.48;;;21.40;99.90;;;;;;5098186;28;20118;-60
2021/08/06 10:40:34;;;;;;;5.45;1.77;;;20.90;99.90;;;;;;5096273;28;20109;-60
2021/08/06 10:43:10;;;;;;;6.25;1.98;;;21.10;99.90;;;;;;5097941;28;20036;-60
2021/08/06 10:45:45;;;;;;;3.63;1.40;;;21.50;99.90;;;;;;5097756;28;20026;-60
2021/08/06 10:48:34;;;;;;;3.63;1.27;;;22.20;99.90;;;;;;5098036;28;20073;-60
2021/08/06 10:51:15;;;;;;;4.82;1.52;;;22.50;99.90;;;;;;5097977;28;20048;-63
2021/08/06 10:53:43;;;;;;;3.92;1.58;;;22.10;99.90;;;;;;5097623;28;20571;-60
2021/08/06 10:56:18;;;;;;;4.75;1.30;;;21.80;99.90;;;;;;5092642;28;20052;-60
2021/08/06 10:58:53;;;;;;;4.27;1.60;;;22.00;99.90;;;;;;5096779;28;20506;-61
2021/08/06 11:01:32;;;;;;;7.78;1.65;;;22.40;99.90;;;;;;5104966;28;20027;-60
2021/08/06 11:04:02;;;;;;;4.35;1.30;;;;;;;;;;5097582;28;20027;-61
2021/08/06 11:06:38;;;;;;;3.40;1.30;;;24.80;99.90;;;;;;5097504;28;20035;-61
2021/08/06 11:09:11;;;;;;;4.68;1.10;;;24.90;99.90;;;;;;5097117;28;20520;-61
2021/08/06 11:11:52;;;;;;;8.52;2.17;;;25.00;99.90;;;;;;5097225;28;20032;-61
2021/08/06 11:14:40;;;;;;;3.30;1.33;;;25.70;99.90;;;;;;5100409;28;20036;-61
2021/08/06 11:17:09;;;;;;;2.50;1.13;;;26.90;99.90;;;;;;5090075;28;20044;-61
2021/08/06 11:19:45;;;;;;;3.42;0.80;;;27.40;99.90;;;;;;5096985;28;20027;-62
2021/08/06 11:22:17;;;;;;;3.60;1.00;;;27.20;99.60;;;;;;5097488;28;20048;-61
2021/08/06 11:24:50;;;;;;;1.83;1.15;;;25.00;99.90;;;;;;5096653;28;20026;-61
2021/08/06 11:27:18;;;;;;;4.82;1.40;;;24.40;99.90;;;;;;5097325;28;20024;-61
2021/08/06 11:29:57;;;;;;;4.65;1.27;;;24.20;99.90;;;;;;5097052;28;20049;-61
2021/08/06 11:32:23;;;;;;;4.40;1.25;;;24.50;99.90;;;;;;5096321;28;20012;-61
2021/08/06 11:34:55;;;;;;;4.80;1.27;;;25.20;99.90;;;;;;5096865;28;20044;-61
2021/08/06 11:37:26;;;;;;;4.13;1.02;;;25.80;99.90;;;;;;5096991;28;20035;-62
2021/08/06 11:40:07;;;;;;;5.75;2.15;;;25.70;99.90;;;;;;5096588;28;20099;-61
2021/08/06 11:42:33;;;;;;;4.05;1.00;;;26.10;99.90;;;;;;5096813;28;20019;-61
2021/08/06 11:44:59;;;;;;;3.60;1.20;;;26.60;98.10;;;;;;5097146;28;20099;-61
2021/08/06 11:47:35;;;;;;;4.72;1.27;;;26.80;98.30;;;;;;5095866;28;20044;-61
2021/08/06 11:50:02;;;;;;;5.03;1.20;;;26.60;97.70;;;;;;5094935;28;20387;-61
2021/08/06 11:52:43;;;;;;;5.93;1.55;;;26.70;98.40;;;;;;5096135;28;20510;-60
2021/08/06 11:55:11;;;;;;;2.33;1.40;;;26.70;97.00;;;;;;5096536;28;20097;-61
2021/08/06 11:57:55;;;;;;;7.63;2.55;;;26.20;97.70;;;;;;5096991;28;20547;-61
2021/08/06 12:00:29;;;;;;;4.45;1.42;;;25.60;99.90;;;;;;5096688;28;20099;-61
2021/08/06 12:03:07;;;;;;;7.55;1.40;;;25.20;99.10;;;;;;5096739;28;20067;-61
2021/08/06 12:05:34;;;;;;;6.78;1.52;;;25.20;99.90;;;;;;5096919;28;20028;-61
2021/08/06 12:08:16;;;;;;;5.95;1.30;;;25.90;99.90;;;;;;5096830;28;20050;-61
2021/08/06 12:10:43;;;;;;;5.30;1.55;;;26.90;99.90;;;;;;5096904;28;20480;-61
2021/08/06 12:13:11;;;;;;;4.28;1.10;;;26.90;99.90;;;;;;5096607;28;20093;-61
2021/08/06 12:15:38;;;;;;;7.57;1.23;;;27.80;99.90;;;;;;5096611;28;20027;-61
2021/08/06 12:18:22;;;;;;;6.07;1.48;;;28.30;94.00;;;;;;5096576;28;20035;-61
2021/08/06 12:21:02;;;;;;;6.47;1.48;;;28.40;95.00;;;;;;5096578;28;20031;-62
2021/08/06 12:23:28;;;;;;;1.60;1.05;;;28.90;94.20;;;;;;5096572;28;20451;-61
2021/08/06 12:26:39;;;;;;;3.55;1.20;;;28.60;92.60;;;;;;5100492;28;20440;-61
2021/08/06 12:29:09;;;;;;;6.00;1.55;;;28.90;92.30;;;;;;5087629;28;20500;-61
2021/08/06 12:31:46;;;;;;;8.15;1.38;;;29.20;92.30;;;;;;5100167;28;20145;-61
2021/08/06 12:34:14;;;;;;;11.10;2.38;;;29.20;92.60;;;;;;5100513;28;20048;-61
2021/08/06 12:36:55;;;;;;;5.47;1.42;;;29.70;92.70;;;;;;5100594;28;20067;-61
2021/08/06 12:39:21;;;;;;;5.57;1.67;;;29.20;92.90;;;;;;5100313;28;20022;-61
2021/08/06 12:41:48;;;;;;;6.40;1.33;;;29.10;92.60;;;;;;5100424;28;20556;-61
2021/08/06 12:44:19;;;;;;;3.85;1.23;;;29.10;92.60;;;;;;5094533;28;20017;-61
2021/08/06 12:47:04;;;;;;;8.93;1.88;;;28.90;92.30;;;;;;5096290;28;20028;-62
2021/08/06 12:49:36;;;;;;;5.18;1.58;;;28.60;90.80;;;;;;5101023;28;20480;-61
2021/08/06 12:52:10;;;;;;;8.63;1.65;;;27.60;91.80;;;;;;5099582;28;20439;-61
2021/08/06 12:54:44;;;;;;;8.17;1.67;;;26.50;97.70;;;;;;5100143;28;20503;-61